Time;durP1;ratioP1;P1;durP2;ratioP2;P2;SDS_P1;SDS_P2;PMS_P1;PMS_P2;Temp;Humidity;BMP_temperature;BMP_pressure;BME280_temperature;BME280_humidity;BME280_pressure;Samples;Min_cycle;Max_cycle;Signal;HPM_P1;HPM_P2
2023/05/16 00:00:30;;;;;;;5.90;5.30;;;12.20;99.90;;;;;;5042874;28;20211;-41
2023/05/16 00:02:56;;;;;;;4.77;4.30;;;12.20;99.90;;;;;;5035277;28;20208;-40
2023/05/16 00:05:21;;;;;;;5.37;4.37;;;12.10;99.90;;;;;;5036958;28;20185;-41
2023/05/16 00:07:47;;;;;;;6.20;4.37;;;12.10;99.90;;;;;;5044467;28;20260;-41
2023/05/16 00:10:13;;;;;;;6.30;4.40;;;12.10;99.90;;;;;;5035564;28;20188;-40
2023/05/16 00:12:39;;;;;;;4.60;4.20;;;12.10;99.90;;;;;;5034989;28;20200;-41
2023/05/16 00:15:07;;;;;;;4.60;4.20;;;12.10;99.90;;;;;;5055087;28;20193;-41
2023/05/16 00:17:34;;;;;;;5.60;4.60;;;12.10;99.90;;;;;;5039835;28;20261;-42
2023/05/16 00:20:01;;;;;;;5.70;3.90;;;12.10;99.90;;;;;;5035315;28;20183;-39
2023/05/16 00:22:27;;;;;;;4.40;4.00;;;12.10;99.90;;;;;;5050060;28;20291;-40
2023/05/16 00:24:53;;;;;;;6.07;4.27;;;12.10;99.90;;;;;;5065412;28;20266;-40
2023/05/16 00:27:18;;;;;;;4.60;4.20;;;12.10;99.90;;;;;;5046631;28;20176;-41
2023/05/16 00:29:44;;;;;;;5.13;4.33;;;12.00;99.90;;;;;;5048974;28;20197;-41
2023/05/16 00:32:10;;;;;;;4.57;4.17;;;12.00;99.90;;;;;;5059592;28;20180;-41
2023/05/16 00:34:36;;;;;;;4.40;3.77;;;12.00;99.90;;;;;;5053967;28;20278;-41
2023/05/16 00:37:02;;;;;;;6.43;4.10;;;11.90;99.90;;;;;;5044937;28;20189;-42
2023/05/16 00:39:28;;;;;;;4.53;4.03;;;11.90;99.90;;;;;;5041090;28;20210;-40
2023/05/16 00:41:56;;;;;;;5.13;3.93;;;11.80;99.90;;;;;;5031243;28;20181;-41
2023/05/16 00:44:22;;;;;;;4.83;4.30;;;11.80;99.90;;;;;;5040589;28;20211;-42
2023/05/16 00:46:48;;;;;;;4.77;4.37;;;11.80;99.90;;;;;;5042823;28;20200;-41
2023/05/16 00:49:14;;;;;;;4.47;4.07;;;11.80;99.90;;;;;;5030159;28;20176;-41
2023/05/16 00:51:40;;;;;;;5.33;4.67;;;11.80;99.90;;;;;;5046375;28;20177;-40
2023/05/16 00:54:06;;;;;;;5.30;4.80;;;11.80;99.90;;;;;;5034125;28;20215;-41
2023/05/16 00:56:33;;;;;;;4.80;4.40;;;11.80;99.90;;;;;;5041068;28;20175;-41
2023/05/16 00:59:00;;;;;;;4.63;4.23;;;11.80;99.90;;;;;;5045120;28;20659;-40
2023/05/16 01:01:28;;;;;;;5.27;4.47;;;11.80;99.90;;;;;;5029235;28;20185;-41
2023/05/16 01:03:54;;;;;;;6.47;4.50;;;11.90;99.90;;;;;;5047379;28;20674;-41
2023/05/16 01:06:20;;;;;;;5.13;4.13;;;11.90;99.90;;;;;;5057959;28;20211;-42
2023/05/16 01:08:45;;;;;;;4.97;4.23;;;11.90;99.90;;;;;;5053582;28;20200;-41
2023/05/16 01:11:20;;;;;;;5.00;4.50;;;11.90;99.90;;;;;;5049506;28;20210;-40
2023/05/16 01:14:22;;;;;;;5.03;4.30;;;11.90;99.90;;;;;;5035276;28;20215;-41
2023/05/16 01:17:18;;;;;;;5.10;4.53;;;11.90;99.90;;;;;;4956509;28;20178;-41
2023/05/16 01:20:35;;;;;;;5.03;4.53;;;11.90;99.90;;;;;;5036103;28;20197;-41
2023/05/16 01:23:13;;;;;;;5.20;4.30;;;11.80;99.90;;;;;;5002790;28;20225;-42
2023/05/16 01:25:38;;;;;;;5.07;4.53;;;11.80;99.90;;;;;;5057010;28;20187;-40
2023/05/16 01:28:06;;;;;;;6.50;4.50;;;11.80;99.90;;;;;;5042368;28;20172;-41
2023/05/16 01:30:34;;;;;;;4.90;4.40;;;11.80;99.90;;;;;;5051720;28;20220;-41
2023/05/16 01:33:00;;;;;;;4.90;4.10;;;11.80;99.90;;;;;;5037124;28;20206;-40
2023/05/16 01:35:26;;;;;;;4.60;4.20;;;11.80;99.90;;;;;;5029031;28;20271;-41
2023/05/16 01:38:11;;;;;;;4.80;4.30;;;11.80;99.90;;;;;;5045146;28;20177;-39
2023/05/16 01:40:55;;;;;;;6.37;4.70;;;11.80;99.90;;;;;;5047703;28;20212;-41
2023/05/16 01:43:50;;;;;;;5.67;4.30;;;11.80;99.90;;;;;;5069668;28;20203;-40
2023/05/16 01:46:23;;;;;;;5.00;4.00;;;11.90;99.90;;;;;;5036388;28;20196;-41
2023/05/16 01:48:52;;;;;;;5.17;4.33;;;11.80;99.90;;;;;;5030137;28;20188;-40
2023/05/16 01:51:21;;;;;;;7.50;4.63;;;11.80;99.90;;;;;;5038412;28;20230;-41
2023/05/16 01:53:48;;;;;;;4.80;4.40;;;11.80;99.90;;;;;;5045925;28;20223;-41
2023/05/16 01:56:16;;;;;;;5.60;4.63;;;11.80;99.90;;;;;;5061868;28;20188;-41
2023/05/16 01:58:43;;;;;;;4.70;4.17;;;11.80;99.90;;;;;;5041525;28;20188;-41
2023/05/16 02:01:08;;;;;;;7.03;4.10;;;11.80;99.90;;;;;;5052646;28;20270;-41
2023/05/16 02:03:37;;;;;;;5.53;4.63;;;11.80;99.90;;;;;;5036105;28;20243;-40
2023/05/16 02:06:03;;;;;;;5.67;4.37;;;11.80;99.90;;;;;;5066993;28;20194;-41
2023/05/16 02:08:30;;;;;;;4.63;3.97;;;11.80;99.90;;;;;;5025903;28;20179;-41
2023/05/16 02:10:56;;;;;;;8.57;4.97;;;11.70;99.90;;;;;;5041808;28;20271;-40
2023/05/16 02:13:22;;;;;;;5.37;4.87;;;11.80;99.90;;;;;;5036749;28;20287;-38
2023/05/16 02:15:47;;;;;;;5.13;4.67;;;11.80;99.90;;;;;;5044801;28;20561;-41
2023/05/16 02:18:13;;;;;;;5.30;4.80;;;11.80;99.90;;;;;;5046098;28;20199;-39
2023/05/16 02:20:39;;;;;;;5.53;5.00;;;11.80;99.90;;;;;;5042656;28;20189;-41
2023/05/16 02:23:05;;;;;;;5.80;4.97;;;11.70;99.90;;;;;;5040526;28;20228;-41
2023/05/16 02:25:31;;;;;;;5.90;5.10;;;11.70;99.90;;;;;;5040887;28;20181;-41
2023/05/16 02:27:57;;;;;;;5.10;4.70;;;11.70;99.90;;;;;;5038498;28;20183;-41
2023/05/16 02:30:22;;;;;;;5.67;5.17;;;11.70;99.90;;;;;;5051800;28;20220;-41
2023/05/16 02:32:48;;;;;;;6.07;5.13;;;11.70;99.90;;;;;;5035279;28;20287;-41
2023/05/16 02:35:15;;;;;;;5.20;4.70;;;11.70;99.90;;;;;;5064802;28;20219;-41
2023/05/16 02:37:42;;;;;;;6.10;4.60;;;11.70;99.90;;;;;;5060819;28;20318;-41
2023/05/16 02:40:09;;;;;;;5.70;4.60;;;11.70;99.90;;;;;;5040673;28;20271;-41
2023/05/16 02:42:35;;;;;;;4.80;4.40;;;11.70;99.90;;;;;;5027622;28;20206;-39
2023/05/16 02:45:01;;;;;;;7.30;5.03;;;11.70;99.90;;;;;;5031956;28;20200;-39
2023/05/16 02:47:28;;;;;;;5.50;5.00;;;11.70;99.90;;;;;;5028520;28;20254;-41
2023/05/16 02:49:55;;;;;;;6.77;4.83;;;11.70;99.90;;;;;;5053700;28;20179;-39
2023/05/16 02:52:20;;;;;;;6.23;5.27;;;11.70;99.90;;;;;;5057294;28;20187;-41
2023/05/16 02:54:46;;;;;;;5.30;4.80;;;11.70;99.90;;;;;;5022127;28;20204;-41
2023/05/16 02:57:12;;;;;;;6.63;5.20;;;11.70;99.90;;;;;;5048448;28;20195;-38
2023/05/16 02:59:38;;;;;;;5.53;5.03;;;11.70;99.90;;;;;;5028482;28;20174;-40
2023/05/16 03:02:04;;;;;;;7.13;5.17;;;11.70;99.90;;;;;;5063110;28;20194;-42
2023/05/16 03:04:31;;;;;;;6.90;5.33;;;11.70;99.90;;;;;;5037188;28;20207;-40
2023/05/16 03:06:57;;;;;;;5.20;4.70;;;11.70;99.90;;;;;;5042080;28;20180;-41
2023/05/16 03:09:23;;;;;;;8.03;5.30;;;11.80;99.90;;;;;;5057913;28;20216;-41
2023/05/16 03:11:48;;;;;;;5.83;5.23;;;11.80;99.90;;;;;;5047694;28;20198;-39
2023/05/16 03:14:14;;;;;;;5.00;4.60;;;11.70;99.90;;;;;;5053106;28;20208;-40
2023/05/16 03:16:42;;;;;;;7.10;4.93;;;11.70;99.90;;;;;;5054361;28;20178;-39
2023/05/16 03:19:09;;;;;;;6.37;4.80;;;11.80;99.90;;;;;;5048411;28;20184;-39
2023/05/16 03:21:35;;;;;;;5.20;4.70;;;11.80;99.90;;;;;;5046436;28;20184;-40
2023/05/16 03:24:04;;;;;;;5.57;5.00;;;11.80;99.90;;;;;;5034418;28;20214;-39
2023/05/16 03:26:30;;;;;;;7.17;5.40;;;11.70;99.90;;;;;;5042295;28;20268;-41
2023/05/16 03:28:56;;;;;;;5.80;5.30;;;11.70;99.90;;;;;;5049378;28;20201;-41
2023/05/16 03:31:21;;;;;;;5.23;4.83;;;11.70;99.90;;;;;;5027465;28;20176;-41
2023/05/16 03:33:47;;;;;;;9.03;5.30;;;11.70;99.90;;;;;;5070216;28;20229;-41
2023/05/16 03:36:13;;;;;;;6.70;5.17;;;11.70;99.90;;;;;;5047336;28;20257;-41
2023/05/16 03:38:39;;;;;;;5.00;4.60;;;11.70;99.90;;;;;;5057707;28;20249;-41
2023/05/16 03:41:05;;;;;;;5.67;5.17;;;11.70;99.90;;;;;;5041149;28;20185;-39
2023/05/16 03:43:31;;;;;;;7.03;5.57;;;11.70;99.90;;;;;;5018917;28;20229;-41
2023/05/16 03:46:02;;;;;;;5.50;5.03;;;11.70;99.90;;;;;;5071646;28;20201;-40
2023/05/16 03:48:29;;;;;;;7.07;5.70;;;11.70;99.90;;;;;;5020753;28;20194;-40
2023/05/16 03:51:02;;;;;;;6.93;5.73;;;11.70;99.90;;;;;;5041771;28;20271;-39
2023/05/16 03:53:30;;;;;;;6.27;5.67;;;11.70;99.90;;;;;;5063470;28;20222;-40
2023/05/16 03:56:01;;;;;;;6.70;5.83;;;11.70;99.90;;;;;;5067946;28;20197;-40
2023/05/16 03:58:30;;;;;;;6.47;5.87;;;11.70;99.90;;;;;;5059460;28;20242;-39
2023/05/16 04:00:56;;;;;;;6.87;6.20;;;11.60;99.90;;;;;;5030957;28;20191;-41
2023/05/16 04:03:27;;;;;;;6.50;5.90;;;11.60;99.90;;;;;;5061938;28;20215;-41
2023/05/16 04:05:54;;;;;;;8.20;6.07;;;11.60;99.90;;;;;;5062310;28;20186;-41
2023/05/16 04:08:21;;;;;;;7.03;6.33;;;11.60;99.90;;;;;;5041937;28;20181;-41
2023/05/16 04:10:46;;;;;;;7.77;6.33;;;11.60;99.90;;;;;;5043329;28;20175;-39
2023/05/16 04:13:13;;;;;;;8.60;6.93;;;11.70;99.90;;;;;;5046426;28;20223;-40
2023/05/16 04:15:39;;;;;;;7.53;6.77;;;11.70;99.90;;;;;;5060107;28;20212;-41
2023/05/16 04:18:05;;;;;;;7.07;6.37;;;11.70;99.90;;;;;;5042933;28;20184;-39
2023/05/16 04:20:31;;;;;;;7.67;6.97;;;11.70;99.90;;;;;;5041078;28;20176;-41
2023/05/16 04:22:57;;;;;;;7.83;6.57;;;11.80;99.90;;;;;;5060878;28;20317;-39
2023/05/16 04:25:23;;;;;;;7.77;6.77;;;11.80;99.90;;;;;;5044275;28;20258;-41
2023/05/16 04:27:49;;;;;;;8.93;6.93;;;11.80;99.90;;;;;;5061766;28;20179;-41
2023/05/16 04:30:15;;;;;;;8.33;7.40;;;11.80;99.90;;;;;;5041637;28;20198;-41
2023/05/16 04:32:41;;;;;;;9.80;8.20;;;11.90;99.90;;;;;;5052269;28;20179;-39
2023/05/16 04:35:08;;;;;;;10.03;8.07;;;11.80;99.90;;;;;;5036892;28;20210;-42
2023/05/16 04:37:34;;;;;;;10.13;8.93;;;11.90;99.90;;;;;;5052806;28;20187;-40
2023/05/16 04:40:00;;;;;;;12.90;9.10;;;11.80;99.90;;;;;;5054733;28;20221;-41
2023/05/16 04:42:26;;;;;;;10.93;8.87;;;11.80;99.90;;;;;;5043146;28;20190;-41
2023/05/16 04:44:53;;;;;;;12.07;9.30;;;11.80;99.90;;;;;;5064130;28;20210;-41
2023/05/16 04:47:18;;;;;;;11.47;9.07;;;11.80;99.90;;;;;;5034370;28;20215;-40
2023/05/16 04:49:44;;;;;;;12.77;9.83;;;11.80;99.90;;;;;;5047251;28;20210;-41
2023/05/16 04:52:10;;;;;;;11.93;10.00;;;11.90;99.90;;;;;;5066381;28;20189;-42
2023/05/16 04:54:38;;;;;;;12.30;10.57;;;11.90;99.90;;;;;;5049518;28;20205;-39
2023/05/16 04:57:04;;;;;;;16.83;11.90;;;11.90;99.90;;;;;;5059768;28;20189;-41
2023/05/16 04:59:30;;;;;;;16.63;12.00;;;11.90;99.90;;;;;;5044711;28;20235;-41
2023/05/16 05:01:56;;;;;;;34.33;23.87;;;11.90;99.90;;;;;;5065750;28;20213;-39
2023/05/16 05:04:22;;;;;;;34.13;23.97;;;11.90;99.90;;;;;;5042197;28;20216;-41
2023/05/16 05:06:48;;;;;;;29.13;20.83;;;11.90;99.90;;;;;;5065460;28;20229;-41
2023/05/16 05:09:13;;;;;;;35.47;23.70;;;11.90;99.90;;;;;;5044168;28;20192;-41
2023/05/16 05:11:39;;;;;;;34.40;24.37;;;11.90;99.90;;;;;;5044542;28;20187;-41
2023/05/16 05:14:05;;;;;;;38.70;26.70;;;12.00;99.90;;;;;;5044189;28;20210;-40
2023/05/16 05:16:31;;;;;;;47.90;31.73;;;12.00;99.90;;;;;;5040186;28;20187;-38
2023/05/16 05:18:59;;;;;;;42.93;29.27;;;12.00;99.90;;;;;;5056489;28;20187;-40
2023/05/16 05:21:24;;;;;;;43.27;30.93;;;12.00;99.90;;;;;;5052339;28;20231;-41
2023/05/16 05:23:50;;;;;;;48.27;32.93;;;12.10;99.90;;;;;;5069414;28;20212;-39
2023/05/16 05:26:17;;;;;;;49.63;34.07;;;12.10;99.90;;;;;;5037425;28;20191;-41
2023/05/16 05:28:42;;;;;;;51.70;33.97;;;12.00;99.90;;;;;;5044560;28;20196;-39
2023/05/16 05:31:08;;;;;;;46.87;32.83;;;12.00;99.90;;;;;;5043757;28;20292;-40
2023/05/16 05:33:34;;;;;;;44.87;31.90;;;12.00;99.90;;;;;;5042343;28;20206;-42
2023/05/16 05:36:00;;;;;;;49.07;32.77;;;12.00;99.90;;;;;;5044847;28;20187;-39
2023/05/16 05:38:26;;;;;;;52.63;34.57;;;12.00;99.90;;;;;;5050784;28;20183;-41
2023/05/16 05:40:51;;;;;;;50.20;32.97;;;12.00;99.90;;;;;;5041455;28;20187;-39
2023/05/16 05:43:17;;;;;;;49.30;32.10;;;12.00;99.90;;;;;;5063689;28;20208;-41
2023/05/16 05:45:43;;;;;;;51.07;35.03;;;11.90;99.90;;;;;;5037970;28;20181;-39
2023/05/16 05:48:09;;;;;;;52.03;33.47;;;11.90;99.90;;;;;;5063446;28;20184;-39
2023/05/16 05:50:36;;;;;;;49.87;34.00;;;11.90;99.90;;;;;;5059229;28;20203;-39
2023/05/16 05:53:02;;;;;;;45.77;32.90;;;11.90;99.90;;;;;;5058339;28;20215;-41
2023/05/16 05:55:28;;;;;;;50.37;34.23;;;11.90;99.90;;;;;;5036531;28;20189;-41
2023/05/16 05:57:54;;;;;;;47.13;32.23;;;11.90;99.90;;;;;;5062307;28;20185;-41
2023/05/16 06:00:20;;;;;;;45.70;32.77;;;11.90;99.90;;;;;;5060584;28;20275;-41
2023/05/16 06:02:47;;;;;;;51.43;33.43;;;11.90;99.90;;;;;;5039811;28;20821;-41
2023/05/16 06:05:12;;;;;;;50.73;34.13;;;11.80;99.90;;;;;;5012840;28;20220;-42
2023/05/16 06:07:38;;;;;;;55.00;34.83;;;11.80;99.90;;;;;;5040760;28;20274;-41
2023/05/16 06:10:07;;;;;;;49.60;32.97;;;11.80;99.90;;;;;;5027082;28;20180;-41
2023/05/16 06:12:33;;;;;;;50.63;34.23;;;11.80;99.90;;;;;;5060981;28;20228;-41
2023/05/16 06:14:59;;;;;;;49.40;32.87;;;11.80;99.90;;;;;;5057935;28;20173;-41
2023/05/16 06:17:25;;;;;;;50.30;34.17;;;11.80;99.90;;;;;;5041062;28;20236;-40
2023/05/16 06:19:51;;;;;;;51.70;34.00;;;11.80;99.90;;;;;;5059019;28;20173;-41
2023/05/16 06:22:17;;;;;;;50.20;33.70;;;11.80;99.90;;;;;;5039417;28;20180;-41
2023/05/16 06:24:43;;;;;;;48.63;32.60;;;11.80;99.90;;;;;;5039830;28;20308;-40
2023/05/16 06:27:09;;;;;;;50.37;34.03;;;11.90;99.90;;;;;;5041967;28;20168;-41
2023/05/16 06:29:35;;;;;;;49.83;33.40;;;11.90;99.90;;;;;;5058730;28;20203;-41
2023/05/16 06:32:01;;;;;;;49.83;34.90;;;11.80;99.90;;;;;;5042355;28;20648;-40
2023/05/16 06:34:27;;;;;;;48.07;32.67;;;11.80;99.90;;;;;;5031898;28;20215;-41
2023/05/16 06:36:53;;;;;;;44.57;30.97;;;11.80;99.90;;;;;;5067857;28;20265;-41
2023/05/16 06:39:19;;;;;;;49.57;33.77;;;11.80;99.90;;;;;;5042704;28;20191;-41
2023/05/16 06:41:45;;;;;;;49.50;33.20;;;11.80;99.90;;;;;;5038741;28;20178;-39
2023/05/16 06:44:15;;;;;;;46.30;32.63;;;11.80;99.90;;;;;;5035760;28;20215;-39
2023/05/16 06:46:40;;;;;;;51.37;33.60;;;11.80;99.90;;;;;;5042556;28;20180;-40
2023/05/16 06:49:06;;;;;;;47.30;32.13;;;11.70;99.90;;;;;;5021609;28;20192;-40
2023/05/16 06:51:32;;;;;;;46.03;30.93;;;11.80;99.90;;;;;;5035759;28;20184;-38
2023/05/16 06:53:58;;;;;;;45.03;31.73;;;11.70;99.90;;;;;;5052229;28;20200;-38
2023/05/16 06:56:24;;;;;;;46.87;31.93;;;11.70;99.90;;;;;;5034409;28;20203;-38
2023/05/16 06:58:50;;;;;;;43.53;30.57;;;11.70;99.90;;;;;;5042826;28;20183;-40
2023/05/16 07:01:16;;;;;;;43.07;31.07;;;11.70;99.90;;;;;;5061099;28;20200;-40
2023/05/16 07:03:42;;;;;;;43.20;30.40;;;11.80;99.90;;;;;;5053799;28;20212;-40
2023/05/16 07:06:08;;;;;;;46.13;31.30;;;11.80;99.90;;;;;;5060763;28;20176;-41
2023/05/16 07:08:35;;;;;;;42.43;30.47;;;11.80;99.90;;;;;;5043791;28;20175;-40
2023/05/16 07:11:01;;;;;;;45.17;31.10;;;11.80;99.90;;;;;;5037059;28;20180;-41
2023/05/16 07:13:27;;;;;;;42.10;29.07;;;11.90;99.90;;;;;;5037546;28;20261;-41
2023/05/16 07:15:53;;;;;;;42.67;30.33;;;11.90;99.90;;;;;;5051944;28;20636;-39
2023/05/16 07:18:18;;;;;;;40.13;27.93;;;11.90;99.90;;;;;;5042802;28;20186;-41
2023/05/16 07:20:44;;;;;;;37.50;26.90;;;12.00;99.90;;;;;;5050022;28;20233;-41
2023/05/16 07:23:10;;;;;;;37.67;27.33;;;12.00;99.90;;;;;;5032275;28;20212;-41
2023/05/16 07:25:37;;;;;;;37.63;26.27;;;12.00;99.90;;;;;;5035261;28;20175;-39
2023/05/16 07:28:03;;;;;;;36.83;26.07;;;12.00;99.90;;;;;;5047397;28;20184;-39
2023/05/16 07:30:29;;;;;;;36.63;26.17;;;12.10;99.90;;;;;;5033952;28;20193;-39
2023/05/16 07:32:55;;;;;;;36.73;26.47;;;12.10;99.90;;;;;;5037865;28;20216;-41
2023/05/16 07:35:21;;;;;;;31.67;24.33;;;12.10;99.90;;;;;;5053420;28;20188;-41
2023/05/16 07:37:46;;;;;;;32.50;24.23;;;12.10;99.90;;;;;;5039464;28;20271;-40
2023/05/16 07:40:13;;;;;;;33.33;24.17;;;12.00;99.90;;;;;;5055832;28;20180;-41
2023/05/16 07:42:39;;;;;;;31.73;23.93;;;12.10;99.90;;;;;;5070117;28;20645;-41
2023/05/16 07:45:06;;;;;;;31.77;22.93;;;12.10;99.90;;;;;;5047312;28;20196;-41
2023/05/16 07:47:32;;;;;;;33.03;23.93;;;12.00;99.90;;;;;;5035472;28;20272;-40
2023/05/16 07:49:58;;;;;;;32.17;22.67;;;11.90;99.90;;;;;;5059707;28;20264;-40
2023/05/16 07:52:23;;;;;;;27.87;21.87;;;11.90;99.90;;;;;;5036506;28;20186;-41
2023/05/16 07:54:49;;;;;;;29.03;22.17;;;11.80;99.90;;;;;;5041869;28;20207;-42
2023/05/16 07:57:15;;;;;;;30.37;21.03;;;11.70;99.90;;;;;;5069970;28;20187;-41
2023/05/16 07:59:42;;;;;;;27.03;20.97;;;11.70;99.90;;;;;;5065520;28;20188;-41
2023/05/16 08:02:09;;;;;;;24.90;19.00;;;11.70;99.90;;;;;;5057307;28;20250;-41
2023/05/16 08:04:35;;;;;;;24.37;18.60;;;11.70;99.90;;;;;;5037067;28;20223;-41
2023/05/16 08:07:01;;;;;;;23.60;18.47;;;11.70;99.90;;;;;;5053971;28;20224;-41
2023/05/16 08:09:26;;;;;;;25.73;17.83;;;11.70;99.90;;;;;;5036963;28;20192;-41
2023/05/16 08:11:52;;;;;;;24.40;18.07;;;11.70;99.90;;;;;;5053069;28;20281;-40
2023/05/16 08:14:18;;;;;;;22.23;17.40;;;11.70;99.90;;;;;;5049823;28;20198;-39
2023/05/16 08:16:44;;;;;;;21.50;16.83;;;11.60;99.90;;;;;;5053989;28;20179;-41
2023/05/16 08:19:10;;;;;;;25.07;18.03;;;11.50;99.90;;;;;;5045837;28;20277;-41
2023/05/16 08:21:35;;;;;;;22.83;16.57;;;11.50;99.90;;;;;;5055245;28;20180;-41
2023/05/16 08:24:02;;;;;;;21.80;16.63;;;11.50;99.90;;;;;;5054415;28;20280;-39
2023/05/16 08:26:27;;;;;;;21.77;15.90;;;11.60;99.90;;;;;;5052900;28;20180;-41
2023/05/16 08:28:53;;;;;;;18.93;14.73;;;11.70;99.90;;;;;;5065675;28;20235;-40
2023/05/16 08:31:19;;;;;;;18.80;14.27;;;11.80;99.90;;;;;;5045475;28;20217;-41
2023/05/16 08:33:45;;;;;;;17.87;14.30;;;11.80;99.90;;;;;;5034428;28;20200;-40
2023/05/16 08:36:11;;;;;;;18.40;14.27;;;11.90;99.90;;;;;;5036031;28;20189;-41
2023/05/16 08:38:37;;;;;;;19.20;14.53;;;11.90;99.90;;;;;;5046149;28;20188;-41
2023/05/16 08:41:03;;;;;;;18.77;14.47;;;11.90;99.90;;;;;;5057686;28;20181;-39
2023/05/16 08:43:29;;;;;;;18.73;14.33;;;11.90;99.90;;;;;;5061173;28;20217;-41
2023/05/16 08:45:55;;;;;;;15.73;13.03;;;12.00;99.90;;;;;;5040464;28;20230;-40
2023/05/16 08:48:23;;;;;;;17.67;14.03;;;12.00;99.90;;;;;;5043588;28;20275;-40
2023/05/16 08:50:49;;;;;;;18.03;13.87;;;12.00;99.90;;;;;;5045562;28;20179;-38
2023/05/16 08:53:20;;;;;;;15.23;12.60;;;12.00;99.90;;;;;;5064020;28;20207;-41
2023/05/16 08:55:48;;;;;;;16.20;12.83;;;12.00;99.90;;;;;;5071002;28;20284;-40
2023/05/16 08:58:14;;;;;;;14.90;12.47;;;12.10;99.90;;;;;;5059518;28;20188;-41
2023/05/16 09:00:40;;;;;;;14.50;11.73;;;12.00;99.90;;;;;;5042169;28;20268;-40
2023/05/16 09:03:06;;;;;;;15.17;12.10;;;12.00;99.90;;;;;;5042753;28;20209;-39
2023/05/16 09:05:32;;;;;;;13.13;11.10;;;12.00;99.90;;;;;;5049048;28;20201;-40
2023/05/16 09:07:59;;;;;;;13.40;11.60;;;12.00;99.90;;;;;;5053823;28;20180;-41
2023/05/16 09:10:25;;;;;;;14.73;12.03;;;11.90;99.90;;;;;;5036126;28;20207;-41
2023/05/16 09:12:51;;;;;;;15.73;13.10;;;11.90;99.90;;;;;;5043328;28;20196;-41
2023/05/16 09:15:19;;;;;;;15.33;13.20;;;12.00;99.90;;;;;;5036840;28;20214;-41
2023/05/16 09:17:45;;;;;;;15.43;12.70;;;12.00;99.90;;;;;;5034067;28;20189;-41
2023/05/16 09:20:16;;;;;;;18.30;14.13;;;11.90;99.90;;;;;;5017312;28;20183;-40
2023/05/16 09:22:53;;;;;;;17.63;13.90;;;11.90;99.90;;;;;;5063577;28;20242;-40
2023/05/16 09:25:21;;;;;;;18.57;14.83;;;11.90;99.90;;;;;;5051916;28;20183;-41
2023/05/16 09:27:47;;;;;;;19.67;16.13;;;11.80;99.90;;;;;;5067681;28;20364;-39
2023/05/16 09:30:27;;;;;;;23.17;16.67;;;11.80;99.90;;;;;;5052619;28;20264;-40
2023/05/16 09:32:53;;;;;;;22.13;16.33;;;11.80;99.90;;;;;;5063630;28;20203;-41
2023/05/16 09:35:20;;;;;;;22.60;16.07;;;11.70;99.90;;;;;;5062561;28;20217;-41
2023/05/16 09:37:47;;;;;;;21.97;16.93;;;11.70;99.90;;;;;;5042470;28;20188;-40
2023/05/16 09:40:13;;;;;;;22.20;17.03;;;11.70;99.90;;;;;;5033315;28;20189;-41
2023/05/16 09:42:40;;;;;;;22.27;16.57;;;11.70;99.90;;;;;;5066208;28;20279;-41
2023/05/16 09:45:10;;;;;;;20.63;16.27;;;11.70;99.90;;;;;;5031903;28;20194;-41
2023/05/16 09:47:44;;;;;;;23.97;17.47;;;11.60;99.90;;;;;;5039230;28;20282;-41
2023/05/16 09:50:12;;;;;;;23.33;17.87;;;11.70;99.90;;;;;;5059259;28;20233;-39
2023/05/16 09:52:38;;;;;;;23.50;18.40;;;11.60;99.90;;;;;;5048501;28;20242;-39
2023/05/16 09:55:07;;;;;;;27.27;17.73;;;11.70;99.90;;;;;;5047744;28;20187;-40
2023/05/16 09:57:37;;;;;;;24.90;17.93;;;11.70;99.90;;;;;;5037821;28;20277;-39
2023/05/16 10:00:09;;;;;;;22.27;17.17;;;11.70;99.90;;;;;;5036396;28;20542;-41
2023/05/16 10:02:39;;;;;;;24.50;17.77;;;11.70;99.90;;;;;;5054648;28;20271;-41
2023/05/16 10:05:06;;;;;;;22.60;18.03;;;11.80;99.90;;;;;;5061682;28;20178;-41
2023/05/16 10:07:34;;;;;;;26.07;17.60;;;11.80;99.90;;;;;;5032709;28;20182;-40
2023/05/16 10:10:07;;;;;;;22.03;18.07;;;11.90;99.90;;;;;;5051068;28;20177;-39
2023/05/16 10:12:35;;;;;;;25.07;18.73;;;12.00;99.90;;;;;;5048339;28;20266;-41
2023/05/16 10:15:03;;;;;;;23.10;18.23;;;12.00;99.90;;;;;;5063008;28;20242;-41
2023/05/16 10:17:35;;;;;;;23.27;18.23;;;12.10;99.90;;;;;;5058947;28;20193;-40
2023/05/16 10:20:07;;;;;;;23.23;18.77;;;12.20;99.90;;;;;;5050824;28;20180;-41
2023/05/16 10:22:34;;;;;;;23.33;17.13;;;12.30;99.90;;;;;;5050812;28;20186;-40
2023/05/16 10:25:11;;;;;;;22.13;16.77;;;12.40;99.90;;;;;;5032529;28;20190;-40
2023/05/16 10:27:39;;;;;;;22.00;17.37;;;12.50;99.90;;;;;;5051008;28;20194;-39
2023/05/16 10:30:07;;;;;;;22.70;16.83;;;12.60;99.90;;;;;;5043500;28;20173;-42
2023/05/16 10:32:34;;;;;;;21.87;17.00;;;12.50;99.90;;;;;;5033033;28;20228;-41
2023/05/16 10:35:01;;;;;;;23.50;17.40;;;12.50;99.90;;;;;;5030167;28;20183;-39
2023/05/16 10:37:28;;;;;;;22.00;16.70;;;12.50;99.90;;;;;;5034827;28;20264;-41
2023/05/16 10:39:55;;;;;;;20.30;15.80;;;12.60;99.90;;;;;;5032076;28;20210;-41
2023/05/16 10:42:21;;;;;;;20.70;16.13;;;12.70;99.90;;;;;;5049266;28;20203;-40
2023/05/16 10:44:46;;;;;;;19.03;14.77;;;12.80;99.90;;;;;;5039431;28;20215;-41
2023/05/16 10:47:19;;;;;;;23.73;16.57;;;12.90;99.90;;;;;;5052787;28;20209;-40
2023/05/16 10:49:45;;;;;;;23.17;16.20;;;12.90;99.90;;;;;;5053395;28;20258;-41
2023/05/16 10:52:14;;;;;;;21.47;15.50;;;12.90;99.90;;;;;;5034762;28;20192;-40
2023/05/16 10:54:50;;;;;;;20.50;15.40;;;12.90;99.90;;;;;;5035522;28;20200;-41
2023/05/16 10:57:21;;;;;;;20.73;15.13;;;12.90;99.90;;;;;;5061591;28;20218;-41
2023/05/16 10:59:48;;;;;;;21.90;15.93;;;12.80;99.90;;;;;;5045953;28;20185;-39
2023/05/16 11:02:34;;;;;;;18.47;14.77;;;12.70;99.90;;;;;;5031913;28;20231;-40
2023/05/16 11:05:01;;;;;;;19.17;14.27;;;12.50;99.90;;;;;;5051352;28;20184;-41
2023/05/16 11:07:33;;;;;;;17.07;13.80;;;12.40;99.90;;;;;;5050292;28;20199;-41
2023/05/16 11:10:05;;;;;;;24.57;15.70;;;12.30;99.90;;;;;;5041381;28;20267;-39
2023/05/16 11:12:51;;;;;;;18.33;13.33;;;12.20;99.90;;;;;;5043022;28;20207;-40
2023/05/16 11:15:19;;;;;;;18.67;14.63;;;12.20;99.90;;;;;;5038026;28;20182;-39
2023/05/16 11:17:45;;;;;;;18.93;14.63;;;12.30;99.90;;;;;;5044553;28;20229;-41
2023/05/16 11:20:33;;;;;;;20.30;15.77;;;12.20;99.90;;;;;;5036059;28;20196;-40
2023/05/16 11:23:24;;;;;;;19.10;14.50;;;12.20;99.90;;;;;;5041299;28;20219;-40
2023/05/16 11:25:54;;;;;;;18.33;14.37;;;12.20;99.90;;;;;;5040463;28;20179;-37
2023/05/16 11:28:21;;;;;;;19.40;15.27;;;12.20;99.90;;;;;;5038921;28;20196;-40
2023/05/16 11:30:54;;;;;;;20.87;15.17;;;12.20;99.90;;;;;;5047179;28;20185;-39
2023/05/16 11:33:20;;;;;;;21.50;14.20;;;12.10;99.90;;;;;;5039279;28;20208;-39
2023/05/16 11:36:03;;;;;;;17.60;13.17;;;12.10;99.90;;;;;;5065362;28;20220;-39
2023/05/16 11:38:31;;;;;;;17.93;13.73;;;12.10;99.90;;;;;;5043466;28;20209;-40
2023/05/16 11:41:04;;;;;;;17.50;13.77;;;12.00;99.90;;;;;;5060031;28;20188;-39
2023/05/16 11:43:38;;;;;;;17.33;12.43;;;12.00;99.90;;;;;;5045050;28;20224;-39
2023/05/16 11:46:04;;;;;;;15.87;11.80;;;12.10;99.90;;;;;;5043629;28;20183;-39
2023/05/16 11:48:30;;;;;;;13.33;10.63;;;12.10;99.90;;;;;;5068181;28;20277;-41
2023/05/16 11:50:56;;;;;;;16.33;11.17;;;12.10;99.90;;;;;;5061868;28;20258;-42
2023/05/16 11:53:23;;;;;;;13.10;9.47;;;12.10;99.90;;;;;;5032064;28;20208;-39
2023/05/16 11:55:51;;;;;;;10.53;8.67;;;12.10;99.90;;;;;;5044915;28;20308;-40
2023/05/16 11:58:19;;;;;;;10.17;8.20;;;12.00;99.90;;;;;;5058799;28;20184;-42
2023/05/16 12:00:49;;;;;;;9.63;7.97;;;11.80;99.90;;;;;;5068978;28;20179;-41
2023/05/16 12:03:16;;;;;;;10.67;8.17;;;11.70;99.90;;;;;;5044987;28;20210;-41
2023/05/16 12:05:52;;;;;;;9.87;7.10;;;11.60;99.90;;;;;;5063911;28;20189;-39
2023/05/16 12:08:20;;;;;;;12.27;8.43;;;11.50;99.90;;;;;;5045753;28;20178;-42
2023/05/16 12:10:49;;;;;;;11.07;8.43;;;11.40;99.90;;;;;;5041165;28;20319;-40
2023/05/16 12:13:16;;;;;;;10.57;8.60;;;11.40;99.90;;;;;;5043464;28;20301;-39
2023/05/16 12:15:42;;;;;;;11.00;8.73;;;11.40;99.90;;;;;;5061594;28;20205;-39
2023/05/16 12:18:09;;;;;;;12.80;9.10;;;11.50;99.90;;;;;;5063840;28;20179;-40
2023/05/16 12:20:35;;;;;;;13.07;10.10;;;11.50;99.90;;;;;;5041173;28;20187;-40
2023/05/16 12:23:03;;;;;;;14.43;10.40;;;11.70;99.90;;;;;;5058878;28;20212;-39
2023/05/16 12:25:40;;;;;;;13.57;10.73;;;11.60;99.90;;;;;;5042688;28;20183;-40
2023/05/16 12:28:13;;;;;;;13.67;10.10;;;11.60;99.90;;;;;;5042809;28;20189;-42
2023/05/16 12:30:43;;;;;;;12.87;10.33;;;11.70;99.90;;;;;;5048743;28;20193;-39
2023/05/16 12:33:14;;;;;;;13.57;10.27;;;11.70;99.90;;;;;;5064360;28;20220;-41
2023/05/16 12:35:42;;;;;;;15.00;11.30;;;11.80;99.90;;;;;;5038440;28;20185;-41
2023/05/16 12:38:11;;;;;;;14.97;11.03;;;11.80;99.90;;;;;;5064011;28;20197;-39